Spirit Of New York — WCW9332 — position and weather

sailwx.info

Track history (hours):
 
Tides and Currents Weather Stations Pressure Air Temp Water Temp Dewpoint Dewpoint Depression Visibility Wind Speed Wind Dir Waves Ship Positions

Spirit Of New York

Owner: SPIRIT CRUISES LLC, NEW YORK, NY. More information available from US FCC via Universal Licensing System and Coast Guard Vessel Documentation Center.

Last reported at 2015-Mar-29 02:24 UTC. Time now 2015-Mar-29 19:40 UTC.
Position N 40°45' W 074°01'.

Length 62 m.

Type: Passenger vessel. MMSI: 338897000.

Date/timePositionNaut miles runAvg speedWind from/ knotsBaromVisibWave heightAir tempDewpointWater temp
2015-Mar-29 02:24N 40°45' W 074°01'0 0.6
2015-Mar-29 01:33N 40°44' W 074°01'3 2.6
2015-Mar-29 00:33N 40°42' W 074°01'3 3.2
2015-Mar-28 23:33N 40°45' W 074°01'0 0.4
2015-Mar-28 22:33N 40°45' W 074°01'0 0.0
2015-Mar-28 21:33N 40°45' W 074°01'0 0.0
2015-Mar-28 20:33N 40°45' W 074°01'0 0.0
2015-Mar-28 19:33N 40°45' W 074°01'0 0.0
2015-Mar-28 18:33N 40°45' W 074°01'1 0.9
2015-Mar-28 17:33N 40°44' W 074°01'3 3.1
2015-Mar-28 16:33N 40°41' W 074°02'4 4.0
2015-Mar-28 15:33N 40°45' W 074°01'1 0.1
2015-Mar-28 01:33N 40°44' W 074°01'2 2.3
2015-Mar-28 00:33N 40°42' W 074°01'3 3.3
2015-Mar-27 23:33N 40°45' W 074°01'0 0.3
2015-Mar-27 22:33N 40°45' W 074°01'0 0.0
2015-Mar-27 21:33N 40°45' W 074°01'0 0.0
2015-Mar-27 20:33N 40°45' W 074°01'2 1.5
2015-Mar-27 19:33N 40°43' W 074°01'0 0.1
2015-Mar-27 18:33N 40°43' W 074°01'1 1.3
2015-Mar-27 17:33N 40°45' W 074°01'3 2.9
2015-Mar-27 16:33N 40°42' W 074°02'4 0.3
2015-Mar-27 02:33N 40°46' W 074°01'1 0.8
2015-Mar-27 01:33N 40°45' W 074°01'3 2.8
2015-Mar-27 00:33N 40°42' W 074°00'4 3.8
2015-Mar-26 23:33N 40°46' W 074°01'0 0.4
2015-Mar-26 22:33N 40°46' W 074°01'1 0.7
2015-Mar-26 21:33N 40°45' W 074°01'0 0.0
2015-Mar-26 02:32N 40°45' W 074°01'0 0.0
2015-Mar-26 01:33N 40°45' W 074°01'4 3.9
2015-Mar-26 00:33N 40°41' W 074°02'4 4.1
2015-Mar-25 23:33N 40°45' W 074°01'0 0.0
2015-Mar-25 02:28N 40°45' W 074°01'0 0.0
2015-Mar-25 01:33N 40°45' W 074°01'4 3.8
2015-Mar-25 00:33N 40°41' W 074°02'4 4.0
2015-Mar-24 23:33N 40°45' W 074°01'0 0.0
2015-Mar-24 01:33N 40°45' W 074°01'4 3.5
2015-Mar-24 00:33N 40°42' W 074°02'3 2.7
2015-Mar-23 23:34N 40°44' W 074°01'1 0.8
2015-Mar-23 22:34N 40°45' W 074°01'0 0.0
2015-Mar-23 01:34N 40°45' W 074°01'4 4.0
2015-Mar-23 00:33N 40°41' W 074°02'3 3.1
2015-Mar-22 23:34N 40°44' W 074°01'1 0.9
2015-Mar-22 22:33N 40°45' W 074°01'1 0.0
2015-Mar-22 01:33N 40°45' W 074°01'2 2.5
2015-Mar-22 00:33N 40°42' W 073°60'3 3.0
2015-Mar-21 23:33N 40°45' W 074°01'0 0.4
2015-Mar-21 22:33N 40°45' W 074°01'0 0.0
2015-Mar-21 21:33N 40°45' W 074°01'0 0.0
2015-Mar-21 20:33N 40°45' W 074°01'0 0.0
2015-Mar-21 19:33N 40°45' W 074°01'0 0.0
2015-Mar-21 18:33N 40°45' W 074°01'1 0.9
2015-Mar-21 17:33N 40°44' W 074°01'2 2.1
2015-Mar-21 16:33N 40°42' W 074°02'3 3.0
2015-Mar-21 15:33N 40°45' W 074°01'0 0.0
2015-Mar-21 14:33N 40°45' W 074°01'0 0.0
2015-Mar-21 01:28N 40°45' W 074°01'3 3.6
2015-Mar-21 00:33N 40°42' W 074°02'4 4.4
2015-Mar-20 23:33N 40°46' W 074°00'1 1.1
2015-Mar-20 22:34N 40°45' W 074°01'0 0.0
2015-Mar-20 17:18N 40°45' W 074°01'3 3.6
2015-Mar-20 16:33N 40°43' W 074°02'  
Track history (hours):
 
Tides and Currents Weather Stations Pressure Air Temp Water Temp Dewpoint Dewpoint Depression Visibility Wind Speed Wind Dir Waves Ship Positions

Spirit Of New York

Owner: SPIRIT CRUISES LLC, NEW YORK, NY. More information available from US FCC via Universal Licensing System and Coast Guard Vessel Documentation Center.

Last reported at 2015-Mar-29 02:24 UTC. Time now 2015-Mar-29 19:40 UTC.
Position N 40°45' W 074°01'.

Length 62 m.

Type: Passenger vessel. MMSI: 338897000.

Date/timePositionNaut miles runAvg speedWind from/ knotsBaromVisibWave heightAir tempDewpointWater temp
2015-Mar-29 02:24N 40°45' W 074°01'0 0.6
2015-Mar-29 01:33N 40°44' W 074°01'3 2.6
2015-Mar-29 00:33N 40°42' W 074°01'3 3.2
2015-Mar-28 23:33N 40°45' W 074°01'0 0.4
2015-Mar-28 22:33N 40°45' W 074°01'0 0.0
2015-Mar-28 21:33N 40°45' W 074°01'0 0.0
2015-Mar-28 20:33N 40°45' W 074°01'0 0.0
2015-Mar-28 19:33N 40°45' W 074°01'0 0.0
2015-Mar-28 18:33N 40°45' W 074°01'1 0.9
2015-Mar-28 17:33N 40°44' W 074°01'3 3.1
2015-Mar-28 16:33N 40°41' W 074°02'4 4.0
2015-Mar-28 15:33N 40°45' W 074°01'1 0.1
2015-Mar-28 01:33N 40°44' W 074°01'2 2.3
2015-Mar-28 00:33N 40°42' W 074°01'3 3.3
2015-Mar-27 23:33N 40°45' W 074°01'0 0.3
2015-Mar-27 22:33N 40°45' W 074°01'0 0.0
2015-Mar-27 21:33N 40°45' W 074°01'0 0.0
2015-Mar-27 20:33N 40°45' W 074°01'2 1.5
2015-Mar-27 19:33N 40°43' W 074°01'0 0.1
2015-Mar-27 18:33N 40°43' W 074°01'1 1.3
2015-Mar-27 17:33N 40°45' W 074°01'3 2.9
2015-Mar-27 16:33N 40°42' W 074°02'4 0.3
2015-Mar-27 02:33N 40°46' W 074°01'1 0.8
2015-Mar-27 01:33N 40°45' W 074°01'3 2.8
2015-Mar-27 00:33N 40°42' W 074°00'4 3.8
2015-Mar-26 23:33N 40°46' W 074°01'0 0.4
2015-Mar-26 22:33N 40°46' W 074°01'1 0.7
2015-Mar-26 21:33N 40°45' W 074°01'0 0.0
2015-Mar-26 02:32N 40°45' W 074°01'0 0.0
2015-Mar-26 01:33N 40°45' W 074°01'4 3.9
2015-Mar-26 00:33N 40°41' W 074°02'4 4.1
2015-Mar-25 23:33N 40°45' W 074°01'0 0.0
2015-Mar-25 02:28N 40°45' W 074°01'0 0.0
2015-Mar-25 01:33N 40°45' W 074°01'4 3.8
2015-Mar-25 00:33N 40°41' W 074°02'4 4.0
2015-Mar-24 23:33N 40°45' W 074°01'0 0.0
2015-Mar-24 01:33N 40°45' W 074°01'4 3.5
2015-Mar-24 00:33N 40°42' W 074°02'3 2.7
2015-Mar-23 23:34N 40°44' W 074°01'1 0.8
2015-Mar-23 22:34N 40°45' W 074°01'0 0.0
2015-Mar-23 01:34N 40°45' W 074°01'4 4.0
2015-Mar-23 00:33N 40°41' W 074°02'3 3.1
2015-Mar-22 23:34N 40°44' W 074°01'1 0.9
2015-Mar-22 22:33N 40°45' W 074°01'1 0.0
2015-Mar-22 01:33N 40°45' W 074°01'2 2.5
2015-Mar-22 00:33N 40°42' W 073°60'3 3.0
2015-Mar-21 23:33N 40°45' W 074°01'0 0.4
2015-Mar-21 22:33N 40°45' W 074°01'0 0.0
2015-Mar-21 21:33N 40°45' W 074°01'0 0.0
2015-Mar-21 20:33N 40°45' W 074°01'0 0.0
2015-Mar-21 19:33N 40°45' W 074°01'0 0.0
2015-Mar-21 18:33N 40°45' W 074°01'1 0.9
2015-Mar-21 17:33N 40°44' W 074°01'2 2.1
2015-Mar-21 16:33N 40°42' W 074°02'3 3.0
2015-Mar-21 15:33N 40°45' W 074°01'0 0.0
2015-Mar-21 14:33N 40°45' W 074°01'0 0.0
2015-Mar-21 01:28N 40°45' W 074°01'3 3.6
2015-Mar-21 00:33N 40°42' W 074°02'4 4.4
2015-Mar-20 23:33N 40°46' W 074°00'1 1.1
2015-Mar-20 22:34N 40°45' W 074°01'0 0.0
2015-Mar-20 17:18N 40°45' W 074°01'3 3.6
2015-Mar-20 16:33N 40°43' W 074°02'  

Dump ship's entire track history